sensor_id;sensor_type;location;lat;lon;timestamp;P1;durP1;ratioP1;P2;durP2;ratioP2
69795;SDS011;57073;45.650;9.612;2023-04-25T00:04:45;5.60;;;2.03;;
69795;SDS011;57073;45.650;9.612;2023-04-25T00:09:46;3.90;;;2.13;;
69795;SDS011;57073;45.650;9.612;2023-04-25T00:14:46;3.90;;;2.40;;
69795;SDS011;57073;45.650;9.612;2023-04-25T00:19:46;3.67;;;1.70;;
69795;SDS011;57073;45.650;9.612;2023-04-25T00:24:47;2.90;;;1.50;;
69795;SDS011;57073;45.650;9.612;2023-04-25T00:29:47;2.73;;;1.37;;
69795;SDS011;57073;45.650;9.612;2023-04-25T00:34:47;2.97;;;1.30;;
69795;SDS011;57073;45.650;9.612;2023-04-25T00:39:48;3.13;;;1.20;;
69795;SDS011;57073;45.650;9.612;2023-04-25T00:44:49;2.07;;;1.13;;
69795;SDS011;57073;45.650;9.612;2023-04-25T00:49:51;3.00;;;0.80;;
69795;SDS011;57073;45.650;9.612;2023-04-25T00:54:53;3.25;;;0.85;;
69795;SDS011;57073;45.650;9.612;2023-04-25T00:59:53;2.23;;;0.70;;
69795;SDS011;57073;45.650;9.612;2023-04-25T01:04:54;1.37;;;0.70;;
69795;SDS011;57073;45.650;9.612;2023-04-25T01:09:54;2.63;;;0.70;;
69795;SDS011;57073;45.650;9.612;2023-04-25T01:14:55;2.10;;;0.80;;
69795;SDS011;57073;45.650;9.612;2023-04-25T01:19:55;2.80;;;1.67;;
69795;SDS011;57073;45.650;9.612;2023-04-25T01:24:56;1.52;;;0.63;;
69795;SDS011;57073;45.650;9.612;2023-04-25T01:29:57;1.20;;;0.70;;
69795;SDS011;57073;45.650;9.612;2023-04-25T01:34:57;2.47;;;0.70;;
69795;SDS011;57073;45.650;9.612;2023-04-25T01:39:58;1.40;;;0.70;;
69795;SDS011;57073;45.650;9.612;2023-04-25T01:44:58;1.23;;;0.60;;
69795;SDS011;57073;45.650;9.612;2023-04-25T01:49:59;0.85;;;0.50;;
69795;SDS011;57073;45.650;9.612;2023-04-25T01:54:59;1.40;;;0.50;;
69795;SDS011;57073;45.650;9.612;2023-04-25T02:00:02;0.90;;;0.40;;
69795;SDS011;57073;45.650;9.612;2023-04-25T02:05:04;1.15;;;0.47;;
69795;SDS011;57073;45.650;9.612;2023-04-25T02:10:05;2.42;;;0.60;;
69795;SDS011;57073;45.650;9.612;2023-04-25T02:15:06;1.00;;;0.40;;
69795;SDS011;57073;45.650;9.612;2023-04-25T02:20:07;1.07;;;0.53;;
69795;SDS011;57073;45.650;9.612;2023-04-25T02:25:08;1.48;;;1.05;;
69795;SDS011;57073;45.650;9.612;2023-04-25T02:30:09;1.17;;;0.60;;
69795;SDS011;57073;45.650;9.612;2023-04-25T02:35:09;1.73;;;0.50;;
69795;SDS011;57073;45.650;9.612;2023-04-25T02:40:10;2.13;;;0.80;;
69795;SDS011;57073;45.650;9.612;2023-04-25T02:45:11;4.33;;;0.80;;
69795;SDS011;57073;45.650;9.612;2023-04-25T02:50:11;2.70;;;0.90;;
69795;SDS011;57073;45.650;9.612;2023-04-25T02:55:12;3.03;;;0.90;;
69795;SDS011;57073;45.650;9.612;2023-04-25T03:00:13;2.15;;;0.80;;
69795;SDS011;57073;45.650;9.612;2023-04-25T03:05:14;2.20;;;1.02;;
69795;SDS011;57073;45.650;9.612;2023-04-25T03:10:14;5.27;;;2.00;;
69795;SDS011;57073;45.650;9.612;2023-04-25T03:15:15;2.57;;;0.90;;
69795;SDS011;57073;45.650;9.612;2023-04-25T03:20:16;3.67;;;1.00;;
69795;SDS011;57073;45.650;9.612;2023-04-25T03:25:17;1.70;;;1.00;;
69795;SDS011;57073;45.650;9.612;2023-04-25T03:30:17;1.83;;;0.70;;
69795;SDS011;57073;45.650;9.612;2023-04-25T03:35:17;2.20;;;1.10;;
69795;SDS011;57073;45.650;9.612;2023-04-25T03:40:18;3.00;;;1.00;;
69795;SDS011;57073;45.650;9.612;2023-04-25T03:45:18;1.67;;;0.93;;
69795;SDS011;57073;45.650;9.612;2023-04-25T03:50:18;1.20;;;0.70;;
69795;SDS011;57073;45.650;9.612;2023-04-25T03:55:19;1.63;;;0.87;;
69795;SDS011;57073;45.650;9.612;2023-04-25T04:00:20;1.80;;;0.60;;
69795;SDS011;57073;45.650;9.612;2023-04-25T04:05:20;1.90;;;0.70;;
69795;SDS011;57073;45.650;9.612;2023-04-25T04:10:21;1.63;;;0.90;;
69795;SDS011;57073;45.650;9.612;2023-04-25T04:15:21;1.40;;;0.60;;
69795;SDS011;57073;45.650;9.612;2023-04-25T04:20:22;2.50;;;0.90;;
69795;SDS011;57073;45.650;9.612;2023-04-25T04:25:22;1.47;;;0.87;;
69795;SDS011;57073;45.650;9.612;2023-04-25T04:30:24;2.17;;;0.70;;
69795;SDS011;57073;45.650;9.612;2023-04-25T04:35:25;2.03;;;0.70;;
69795;SDS011;57073;45.650;9.612;2023-04-25T04:40:25;1.63;;;0.90;;
69795;SDS011;57073;45.650;9.612;2023-04-25T04:45:26;1.87;;;0.80;;
69795;SDS011;57073;45.650;9.612;2023-04-25T04:50:27;2.10;;;0.82;;
69795;SDS011;57073;45.650;9.612;2023-04-25T04:55:28;1.07;;;0.70;;
69795;SDS011;57073;45.650;9.612;2023-04-25T05:00:28;2.80;;;1.00;;
69795;SDS011;57073;45.650;9.612;2023-04-25T05:05:29;4.57;;;1.00;;
69795;SDS011;57073;45.650;9.612;2023-04-25T05:10:29;1.30;;;0.80;;
69795;SDS011;57073;45.650;9.612;2023-04-25T05:15:30;1.40;;;0.60;;
69795;SDS011;57073;45.650;9.612;2023-04-25T05:20:30;3.03;;;0.77;;
69795;SDS011;57073;45.650;9.612;2023-04-25T05:25:30;1.30;;;0.70;;
69795;SDS011;57073;45.650;9.612;2023-04-25T05:30:31;2.03;;;0.80;;
69795;SDS011;57073;45.650;9.612;2023-04-25T05:35:31;1.53;;;0.63;;
69795;SDS011;57073;45.650;9.612;2023-04-25T05:40:32;1.23;;;0.60;;
69795;SDS011;57073;45.650;9.612;2023-04-25T05:45:32;1.17;;;0.50;;
69795;SDS011;57073;45.650;9.612;2023-04-25T05:50:33;1.93;;;0.77;;
69795;SDS011;57073;45.650;9.612;2023-04-25T05:55:33;3.77;;;1.33;;
69795;SDS011;57073;45.650;9.612;2023-04-25T06:00:33;2.50;;;1.30;;
69795;SDS011;57073;45.650;9.612;2023-04-25T06:05:34;2.53;;;1.50;;
69795;SDS011;57073;45.650;9.612;2023-04-25T06:10:35;4.50;;;1.37;;
69795;SDS011;57073;45.650;9.612;2023-04-25T06:15:36;2.20;;;1.40;;
69795;SDS011;57073;45.650;9.612;2023-04-25T06:20:36;1.87;;;1.40;;
69795;SDS011;57073;45.650;9.612;2023-04-25T06:25:36;2.60;;;1.00;;
69795;SDS011;57073;45.650;9.612;2023-04-25T06:30:37;3.80;;;1.40;;
69795;SDS011;57073;45.650;9.612;2023-04-25T06:35:38;2.53;;;1.10;;
69795;SDS011;57073;45.650;9.612;2023-04-25T06:40:38;3.33;;;1.20;;
69795;SDS011;57073;45.650;9.612;2023-04-25T06:45:39;2.85;;;1.33;;
69795;SDS011;57073;45.650;9.612;2023-04-25T06:50:39;2.10;;;1.30;;
69795;SDS011;57073;45.650;9.612;2023-04-25T06:55:39;2.03;;;1.00;;
69795;SDS011;57073;45.650;9.612;2023-04-25T07:00:40;1.33;;;0.90;;
69795;SDS011;57073;45.650;9.612;2023-04-25T07:05:40;3.23;;;1.43;;
69795;SDS011;57073;45.650;9.612;2023-04-25T07:10:41;5.27;;;1.53;;
69795;SDS011;57073;45.650;9.612;2023-04-25T07:15:41;2.20;;;1.50;;
69795;SDS011;57073;45.650;9.612;2023-04-25T07:20:42;3.27;;;1.40;;
69795;SDS011;57073;45.650;9.612;2023-04-25T07:25:42;3.40;;;1.50;;
69795;SDS011;57073;45.650;9.612;2023-04-25T07:30:42;2.53;;;1.17;;
69795;SDS011;57073;45.650;9.612;2023-04-25T07:35:43;0.98;;;0.60;;
69795;SDS011;57073;45.650;9.612;2023-04-25T07:40:43;1.40;;;0.60;;
69795;SDS011;57073;45.650;9.612;2023-04-25T07:45:44;1.30;;;0.80;;
69795;SDS011;57073;45.650;9.612;2023-04-25T07:50:45;2.03;;;1.00;;
69795;SDS011;57073;45.650;9.612;2023-04-25T07:55:45;1.30;;;0.80;;
69795;SDS011;57073;45.650;9.612;2023-04-25T08:00:45;1.63;;;0.80;;
69795;SDS011;57073;45.650;9.612;2023-04-25T08:05:46;2.42;;;0.82;;
69795;SDS011;57073;45.650;9.612;2023-04-25T08:10:46;2.00;;;0.93;;
69795;SDS011;57073;45.650;9.612;2023-04-25T08:15:48;2.30;;;0.93;;
69795;SDS011;57073;45.650;9.612;2023-04-25T08:20:48;1.83;;;1.17;;
69795;SDS011;57073;45.650;9.612;2023-04-25T08:25:48;2.67;;;1.00;;
69795;SDS011;57073;45.650;9.612;2023-04-25T08:30:49;2.73;;;1.30;;
69795;SDS011;57073;45.650;9.612;2023-04-25T08:35:49;2.20;;;1.20;;
69795;SDS011;57073;45.650;9.612;2023-04-25T08:40:50;4.13;;;1.37;;
69795;SDS011;57073;45.650;9.612;2023-04-25T08:45:53;4.75;;;1.95;;
69795;SDS011;57073;45.650;9.612;2023-04-25T08:50:58;2.20;;;1.80;;
69795;SDS011;57073;45.650;9.612;2023-04-25T08:56:00;2.95;;;1.83;;
69795;SDS011;57073;45.650;9.612;2023-04-25T09:01:01;4.33;;;2.10;;
69795;SDS011;57073;45.650;9.612;2023-04-25T09:06:03;3.20;;;2.45;;
69795;SDS011;57073;45.650;9.612;2023-04-25T09:11:04;6.23;;;2.40;;
69795;SDS011;57073;45.650;9.612;2023-04-25T09:16:04;4.23;;;2.00;;
69795;SDS011;57073;45.650;9.612;2023-04-25T09:21:09;3.43;;;1.90;;
69795;SDS011;57073;45.650;9.612;2023-04-25T09:26:14;17.20;;;14.32;;
69795;SDS011;57073;45.650;9.612;2023-04-25T09:31:21;4.27;;;2.30;;
69795;SDS011;57073;45.650;9.612;2023-04-25T09:36:25;7.72;;;5.93;;
69795;SDS011;57073;45.650;9.612;2023-04-25T09:41:27;33.65;;;30.10;;
69795;SDS011;57073;45.650;9.612;2023-04-25T09:46:32;20.37;;;18.40;;
69795;SDS011;57073;45.650;9.612;2023-04-25T09:51:34;41.83;;;25.80;;
69795;SDS011;57073;45.650;9.612;2023-04-25T09:56:35;16.13;;;9.47;;
69795;SDS011;57073;45.650;9.612;2023-04-25T10:01:37;9.27;;;6.22;;
69795;SDS011;57073;45.650;9.612;2023-04-25T10:06:40;5.78;;;3.83;;
69795;SDS011;57073;45.650;9.612;2023-04-25T10:11:43;3.33;;;2.20;;
69795;SDS011;57073;45.650;9.612;2023-04-25T10:16:46;2.80;;;2.10;;
69795;SDS011;57073;45.650;9.612;2023-04-25T10:27:13;9.83;;;4.80;;
69795;SDS011;57073;45.650;9.612;2023-04-25T10:32:14;3.70;;;1.63;;
69795;SDS011;57073;45.650;9.612;2023-04-25T10:37:14;3.70;;;1.40;;
69795;SDS011;57073;45.650;9.612;2023-04-25T10:42:15;3.90;;;2.40;;
69795;SDS011;57073;45.650;9.612;2023-04-25T10:47:15;3.83;;;2.17;;
69795;SDS011;57073;45.650;9.612;2023-04-25T10:52:35;9.07;;;4.47;;
69795;SDS011;57073;45.650;9.612;2023-04-25T10:57:40;4.57;;;2.20;;
69795;SDS011;57073;45.650;9.612;2023-04-25T11:02:52;2.73;;;1.83;;
69795;SDS011;57073;45.650;9.612;2023-04-25T11:07:57;3.33;;;1.90;;
69795;SDS011;57073;45.650;9.612;2023-04-25T11:12:58;6.77;;;3.20;;
69795;SDS011;57073;45.650;9.612;2023-04-25T11:17:59;3.25;;;1.90;;
69795;SDS011;57073;45.650;9.612;2023-04-25T11:23:00;2.43;;;1.50;;
69795;SDS011;57073;45.650;9.612;2023-04-25T11:28:00;2.87;;;1.83;;
69795;SDS011;57073;45.650;9.612;2023-04-25T11:33:01;3.67;;;1.70;;
69795;SDS011;57073;45.650;9.612;2023-04-25T11:38:03;2.37;;;1.80;;
69795;SDS011;57073;45.650;9.612;2023-04-25T11:43:04;3.78;;;1.52;;
69795;SDS011;57073;45.650;9.612;2023-04-25T11:48:04;3.27;;;1.80;;
69795;SDS011;57073;45.650;9.612;2023-04-25T11:53:05;2.83;;;2.00;;
69795;SDS011;57073;45.650;9.612;2023-04-25T11:58:06;4.28;;;2.40;;
69795;SDS011;57073;45.650;9.612;2023-04-25T12:03:08;4.30;;;2.70;;
69795;SDS011;57073;45.650;9.612;2023-04-25T12:08:12;5.13;;;2.70;;
69795;SDS011;57073;45.650;9.612;2023-04-25T12:13:21;4.40;;;2.80;;
69795;SDS011;57073;45.650;9.612;2023-04-25T12:18:23;4.75;;;2.60;;
69795;SDS011;57073;45.650;9.612;2023-04-25T12:23:27;3.40;;;2.47;;
69795;SDS011;57073;45.650;9.612;2023-04-25T12:28:28;3.55;;;2.60;;
69795;SDS011;57073;45.650;9.612;2023-04-25T12:33:36;6.05;;;2.30;;
69795;SDS011;57073;45.650;9.612;2023-04-25T12:38:38;4.85;;;2.65;;
69795;SDS011;57073;45.650;9.612;2023-04-25T12:43:40;3.80;;;2.60;;
69795;SDS011;57073;45.650;9.612;2023-04-25T12:48:40;4.70;;;2.30;;
69795;SDS011;57073;45.650;9.612;2023-04-25T12:53:42;6.47;;;2.20;;
69795;SDS011;57073;45.650;9.612;2023-04-25T12:58:42;3.73;;;2.33;;
69795;SDS011;57073;45.650;9.612;2023-04-25T13:03:44;4.38;;;2.30;;
69795;SDS011;57073;45.650;9.612;2023-04-25T13:08:44;5.43;;;2.10;;
69795;SDS011;57073;45.650;9.612;2023-04-25T13:13:45;3.57;;;1.80;;
69795;SDS011;57073;45.650;9.612;2023-04-25T13:18:45;2.17;;;1.63;;
69795;SDS011;57073;45.650;9.612;2023-04-25T13:23:46;3.47;;;2.40;;
69795;SDS011;57073;45.650;9.612;2023-04-25T13:28:46;4.90;;;2.43;;
69795;SDS011;57073;45.650;9.612;2023-04-25T13:33:47;7.97;;;2.30;;
69795;SDS011;57073;45.650;9.612;2023-04-25T13:38:47;4.30;;;2.00;;
69795;SDS011;57073;45.650;9.612;2023-04-25T13:43:49;3.03;;;1.73;;
69795;SDS011;57073;45.650;9.612;2023-04-25T13:48:49;2.17;;;1.27;;
69795;SDS011;57073;45.650;9.612;2023-04-25T13:53:50;2.30;;;1.30;;
69795;SDS011;57073;45.650;9.612;2023-04-25T13:58:50;1.77;;;1.20;;
69795;SDS011;57073;45.650;9.612;2023-04-25T14:03:51;1.95;;;0.80;;
69795;SDS011;57073;45.650;9.612;2023-04-25T14:08:52;1.65;;;0.77;;
69795;SDS011;57073;45.650;9.612;2023-04-25T14:13:52;2.07;;;0.60;;
69795;SDS011;57073;45.650;9.612;2023-04-25T14:18:52;1.50;;;0.57;;
69795;SDS011;57073;45.650;9.612;2023-04-25T14:23:54;1.20;;;0.47;;
69795;SDS011;57073;45.650;9.612;2023-04-25T14:28:55;0.83;;;0.40;;
69795;SDS011;57073;45.650;9.612;2023-04-25T14:33:55;2.73;;;0.63;;
69795;SDS011;57073;45.650;9.612;2023-04-25T14:38:55;1.83;;;0.70;;
69795;SDS011;57073;45.650;9.612;2023-04-25T14:43:56;3.63;;;1.10;;
69795;SDS011;57073;45.650;9.612;2023-04-25T14:48:57;2.05;;;0.60;;
69795;SDS011;57073;45.650;9.612;2023-04-25T14:53:57;1.93;;;0.70;;
69795;SDS011;57073;45.650;9.612;2023-04-25T14:58:58;1.43;;;0.70;;
69795;SDS011;57073;45.650;9.612;2023-04-25T15:03:58;2.33;;;0.67;;
69795;SDS011;57073;45.650;9.612;2023-04-25T15:08:58;3.33;;;0.60;;
69795;SDS011;57073;45.650;9.612;2023-04-25T15:13:59;1.17;;;0.30;;
69795;SDS011;57073;45.650;9.612;2023-04-25T15:18:59;1.77;;;0.57;;
69795;SDS011;57073;45.650;9.612;2023-04-25T15:24:02;1.15;;;0.30;;
69795;SDS011;57073;45.650;9.612;2023-04-25T15:29:03;1.40;;;0.40;;
69795;SDS011;57073;45.650;9.612;2023-04-25T15:34:04;0.80;;;0.30;;
69795;SDS011;57073;45.650;9.612;2023-04-25T15:39:05;0.57;;;0.27;;
69795;SDS011;57073;45.650;9.612;2023-04-25T15:44:05;1.10;;;0.40;;
69795;SDS011;57073;45.650;9.612;2023-04-25T15:49:06;1.83;;;0.50;;
69795;SDS011;57073;45.650;9.612;2023-04-25T15:54:07;1.17;;;0.40;;
69795;SDS011;57073;45.650;9.612;2023-04-25T15:59:08;1.77;;;0.90;;
69795;SDS011;57073;45.650;9.612;2023-04-25T16:04:08;2.23;;;0.40;;
69795;SDS011;57073;45.650;9.612;2023-04-25T16:09:08;0.83;;;0.50;;
69795;SDS011;57073;45.650;9.612;2023-04-25T16:14:09;0.93;;;0.50;;
69795;SDS011;57073;45.650;9.612;2023-04-25T16:19:09;1.23;;;0.40;;
69795;SDS011;57073;45.650;9.612;2023-04-25T16:24:10;0.80;;;0.40;;
69795;SDS011;57073;45.650;9.612;2023-04-25T16:29:11;2.53;;;1.07;;
69795;SDS011;57073;45.650;9.612;2023-04-25T16:34:13;2.42;;;1.20;;
69795;SDS011;57073;45.650;9.612;2023-04-25T16:39:14;3.03;;;1.50;;
69795;SDS011;57073;45.650;9.612;2023-04-25T16:44:14;1.83;;;1.30;;
69795;SDS011;57073;45.650;9.612;2023-04-25T16:49:15;2.00;;;1.42;;
69795;SDS011;57073;45.650;9.612;2023-04-25T16:54:15;2.10;;;1.50;;
69795;SDS011;57073;45.650;9.612;2023-04-25T16:59:16;2.70;;;1.50;;
69795;SDS011;57073;45.650;9.612;2023-04-25T17:04:16;2.90;;;1.50;;
69795;SDS011;57073;45.650;9.612;2023-04-25T17:09:16;2.57;;;1.43;;
69795;SDS011;57073;45.650;9.612;2023-04-25T17:14:17;3.03;;;1.50;;
69795;SDS011;57073;45.650;9.612;2023-04-25T17:19:17;2.57;;;1.47;;
69795;SDS011;57073;45.650;9.612;2023-04-25T17:24:17;2.47;;;1.57;;
69795;SDS011;57073;45.650;9.612;2023-04-25T17:29:20;2.37;;;1.40;;
69795;SDS011;57073;45.650;9.612;2023-04-25T17:34:22;2.72;;;1.20;;
69795;SDS011;57073;45.650;9.612;2023-04-25T17:39:23;3.30;;;1.23;;
69795;SDS011;57073;45.650;9.612;2023-04-25T17:44:24;2.85;;;1.50;;
69795;SDS011;57073;45.650;9.612;2023-04-25T17:49:25;3.40;;;1.20;;
69795;SDS011;57073;45.650;9.612;2023-04-25T17:54:25;1.77;;;1.10;;
69795;SDS011;57073;45.650;9.612;2023-04-25T17:59:26;3.17;;;1.17;;
69795;SDS011;57073;45.650;9.612;2023-04-25T18:04:27;3.97;;;1.40;;
69795;SDS011;57073;45.650;9.612;2023-04-25T18:09:27;2.13;;;1.20;;
69795;SDS011;57073;45.650;9.612;2023-04-25T18:14:27;2.43;;;1.23;;
69795;SDS011;57073;45.650;9.612;2023-04-25T18:19:28;3.15;;;1.13;;
69795;SDS011;57073;45.650;9.612;2023-04-25T18:24:28;3.33;;;1.43;;
69795;SDS011;57073;45.650;9.612;2023-04-25T18:29:29;1.57;;;1.00;;
69795;SDS011;57073;45.650;9.612;2023-04-25T18:34:30;2.90;;;1.40;;
69795;SDS011;57073;45.650;9.612;2023-04-25T18:39:30;2.60;;;1.30;;
69795;SDS011;57073;45.650;9.612;2023-04-25T18:44:31;3.20;;;1.57;;
69795;SDS011;57073;45.650;9.612;2023-04-25T18:49:35;1.88;;;1.40;;
69795;SDS011;57073;45.650;9.612;2023-04-25T18:54:36;2.70;;;1.63;;
69795;SDS011;57073;45.650;9.612;2023-04-25T18:59:37;1.92;;;1.20;;
69795;SDS011;57073;45.650;9.612;2023-04-25T19:04:37;2.10;;;1.30;;
69795;SDS011;57073;45.650;9.612;2023-04-25T19:09:38;2.10;;;1.50;;
69795;SDS011;57073;45.650;9.612;2023-04-25T19:14:38;3.10;;;1.60;;
69795;SDS011;57073;45.650;9.612;2023-04-25T19:19:38;2.40;;;1.20;;
69795;SDS011;57073;45.650;9.612;2023-04-25T19:24:39;2.57;;;1.13;;
69795;SDS011;57073;45.650;9.612;2023-04-25T19:29:39;2.17;;;0.80;;
69795;SDS011;57073;45.650;9.612;2023-04-25T19:34:44;2.30;;;0.98;;
69795;SDS011;57073;45.650;9.612;2023-04-25T19:39:45;3.10;;;1.23;;
69795;SDS011;57073;45.650;9.612;2023-04-25T19:44:46;1.58;;;1.15;;
69795;SDS011;57073;45.650;9.612;2023-04-25T19:49:47;1.93;;;1.37;;
69795;SDS011;57073;45.650;9.612;2023-04-25T19:54:47;2.43;;;1.40;;
69795;SDS011;57073;45.650;9.612;2023-04-25T19:59:47;2.47;;;1.40;;
69795;SDS011;57073;45.650;9.612;2023-04-25T20:04:48;2.70;;;1.40;;
69795;SDS011;57073;45.650;9.612;2023-04-25T20:09:49;2.97;;;1.53;;
69795;SDS011;57073;45.650;9.612;2023-04-25T20:14:49;2.70;;;1.58;;
69795;SDS011;57073;45.650;9.612;2023-04-25T20:19:50;3.30;;;1.80;;
69795;SDS011;57073;45.650;9.612;2023-04-25T20:24:50;2.53;;;1.50;;
69795;SDS011;57073;45.650;9.612;2023-04-25T20:29:51;2.80;;;1.30;;
69795;SDS011;57073;45.650;9.612;2023-04-25T20:34:52;11.67;;;1.57;;
69795;SDS011;57073;45.650;9.612;2023-04-25T20:39:52;3.73;;;1.87;;
69795;SDS011;57073;45.650;9.612;2023-04-25T20:44:52;2.80;;;1.73;;
69795;SDS011;57073;45.650;9.612;2023-04-25T20:49:53;2.60;;;1.53;;
69795;SDS011;57073;45.650;9.612;2023-04-25T20:54:53;4.17;;;1.70;;
69795;SDS011;57073;45.650;9.612;2023-04-25T20:59:54;3.57;;;1.70;;
69795;SDS011;57073;45.650;9.612;2023-04-25T21:04:56;4.38;;;2.35;;
69795;SDS011;57073;45.650;9.612;2023-04-25T21:09:56;3.07;;;1.93;;
69795;SDS011;57073;45.650;9.612;2023-04-25T21:14:56;2.57;;;2.03;;
69795;SDS011;57073;45.650;9.612;2023-04-25T21:19:59;2.57;;;1.90;;
69795;SDS011;57073;45.650;9.612;2023-04-25T21:24:59;2.77;;;1.83;;
69795;SDS011;57073;45.650;9.612;2023-04-25T21:30:05;3.25;;;2.20;;
69795;SDS011;57073;45.650;9.612;2023-04-25T21:35:07;4.13;;;2.25;;
69795;SDS011;57073;45.650;9.612;2023-04-25T21:40:08;3.37;;;2.20;;
69795;SDS011;57073;45.650;9.612;2023-04-25T21:45:09;3.40;;;2.10;;
69795;SDS011;57073;45.650;9.612;2023-04-25T21:50:10;2.97;;;1.88;;
69795;SDS011;57073;45.650;9.612;2023-04-25T21:55:10;3.57;;;2.10;;
69795;SDS011;57073;45.650;9.612;2023-04-25T22:00:11;3.27;;;2.30;;
69795;SDS011;57073;45.650;9.612;2023-04-25T22:05:23;3.45;;;2.13;;
69795;SDS011;57073;45.650;9.612;2023-04-25T22:10:25;3.73;;;2.23;;
69795;SDS011;57073;45.650;9.612;2023-04-25T22:15:26;5.17;;;2.70;;
69795;SDS011;57073;45.650;9.612;2023-04-25T22:20:28;4.75;;;2.33;;
69795;SDS011;57073;45.650;9.612;2023-04-25T22:25:28;4.00;;;2.43;;
69795;SDS011;57073;45.650;9.612;2023-04-25T22:30:30;3.95;;;2.60;;
69795;SDS011;57073;45.650;9.612;2023-04-25T22:35:31;5.30;;;2.87;;
69795;SDS011;57073;45.650;9.612;2023-04-25T22:40:31;5.63;;;3.00;;
69795;SDS011;57073;45.650;9.612;2023-04-25T22:45:33;5.03;;;3.33;;
69795;SDS011;57073;45.650;9.612;2023-04-25T22:50:33;7.43;;;3.40;;
69795;SDS011;57073;45.650;9.612;2023-04-25T22:55:34;4.40;;;2.90;;
69795;SDS011;57073;45.650;9.612;2023-04-25T23:00:35;5.83;;;3.10;;
69795;SDS011;57073;45.650;9.612;2023-04-25T23:05:36;5.17;;;3.47;;
69795;SDS011;57073;45.650;9.612;2023-04-25T23:10:37;5.73;;;3.50;;
69795;SDS011;57073;45.650;9.612;2023-04-25T23:15:37;5.43;;;3.50;;
69795;SDS011;57073;45.650;9.612;2023-04-25T23:20:38;8.20;;;3.70;;
69795;SDS011;57073;45.650;9.612;2023-04-25T23:25:38;6.13;;;3.70;;
69795;SDS011;57073;45.650;9.612;2023-04-25T23:30:39;7.23;;;3.80;;
69795;SDS011;57073;45.650;9.612;2023-04-25T23:35:39;6.80;;;4.23;;
69795;SDS011;57073;45.650;9.612;2023-04-25T23:40:40;6.23;;;3.60;;
69795;SDS011;57073;45.650;9.612;2023-04-25T23:45:40;5.10;;;3.47;;
69795;SDS011;57073;45.650;9.612;2023-04-25T23:50:42;5.38;;;3.85;;
69795;SDS011;57073;45.650;9.612;2023-04-25T23:55:43;6.20;;;3.80;;
